Time;durP1;ratioP1;P1;durP2;ratioP2;P2;SDS_P1;SDS_P2;PMS_P1;PMS_P2;Temp;Humidity;BMP_temperature;BMP_pressure;BME280_temperature;BME280_humidity;BME280_pressure;Samples;Min_cycle;Max_cycle;Signal;HPM_P1;HPM_P2
2022/10/12 00:01:11;;;;;;;65.50;23.30;;;;;;;6.59;67.67;101784.67;106794;1241;138606;-68
2022/10/12 00:03:36;;;;;;;63.80;21.80;;;;;;;6.58;67.86;101785.58;106995;1244;97607;-68
2022/10/12 00:06:12;;;;;;;61.90;24.30;;;;;;;6.56;67.97;101784.88;106938;1244;97770;-67
2022/10/12 00:08:38;;;;;;;68.60;21.70;;;;;;;6.54;67.94;101785.08;106887;1242;139736;-67
2022/10/12 00:11:05;;;;;;;60.30;21.80;;;;;;;6.53;68.06;101784.91;106962;1259;97709;-67
2022/10/12 00:13:31;;;;;;;63.80;21.10;;;;;;;6.53;68.10;101780.64;106895;1246;139992;-67
2022/10/12 00:15:56;;;;;;;55.30;21.60;;;;;;;6.52;68.15;101781.02;106800;1252;97736;-67
2022/10/12 00:18:22;;;;;;;68.90;22.60;;;;;;;6.54;68.27;101788.45;106721;1240;98206;-67
2022/10/12 00:20:47;;;;;;;59.70;20.90;;;;;;;6.54;68.25;101783.48;106739;1250;138798;-67
2022/10/12 00:23:13;;;;;;;66.20;21.80;;;;;;;6.54;68.36;101783.48;106959;1251;97820;-67
2022/10/12 00:25:39;;;;;;;55.80;20.90;;;;;;;6.53;68.34;101784.19;106882;1243;138835;-69
2022/10/12 00:28:05;;;;;;;68.50;23.90;;;;;;;6.50;68.42;101784.22;106921;1249;100958;-67
2022/10/12 00:30:31;;;;;;;64.30;22.00;;;;;;;6.48;68.58;101789.03;106962;1254;97603;-67
2022/10/12 00:32:57;;;;;;;54.30;21.40;;;;;;;6.46;68.69;101789.05;106913;1244;138886;-68
2022/10/12 00:35:23;;;;;;;101.10;37.60;;;;;;;6.46;68.50;101791.54;106917;1238;97746;-68
2022/10/12 00:37:53;;;;;;;121.10;44.00;;;;;;;6.42;68.62;101787.85;106876;1251;138969;-68
2022/10/12 00:40:19;;;;;;;162.30;54.20;;;;;;;6.40;68.70;101790.16;106983;1251;97618;-68
2022/10/12 00:42:44;;;;;;;137.40;51.30;;;;;;;6.40;68.88;101793.02;106938;1244;98638;-68
2022/10/12 00:45:09;;;;;;;119.10;43.00;;;;;;;6.38;68.86;101796.92;106835;1238;138814;-68
2022/10/12 00:47:38;;;;;;;148.60;47.90;;;;;;;6.36;69.01;101800.31;106935;1237;97739;-68
2022/10/12 00:50:10;;;;;;;103.50;40.00;;;;;;;6.34;68.99;101800.86;106785;1247;138994;-68
2022/10/12 00:52:41;;;;;;;155.80;52.10;;;;;;;6.31;69.01;101803.02;106762;1237;111950;-68
2022/10/12 00:55:10;;;;;;;153.40;52.30;;;;;;;6.31;69.10;101800.36;106740;1246;139176;-68
2022/10/12 00:57:35;;;;;;;144.10;51.90;;;;;;;6.28;69.16;101796.65;106918;1244;109125;-68
2022/10/12 01:00:05;;;;;;;125.40;48.20;;;;;;;6.26;69.26;101795.23;106821;1252;97610;-68
2022/10/12 01:02:31;;;;;;;115.20;43.40;;;;;;;6.21;69.25;101796.88;106688;1244;139238;-68
2022/10/12 01:04:58;;;;;;;120.20;42.60;;;;;;;6.17;69.29;101797.08;106915;1246;97658;-68
2022/10/12 01:07:23;;;;;;;110.60;40.00;;;;;;;6.15;69.33;101795.32;106680;1251;138790;-68
2022/10/12 01:09:48;;;;;;;118.10;42.10;;;;;;;6.13;69.27;101793.55;107010;1244;97710;-68
2022/10/12 01:12:15;;;;;;;98.20;39.60;;;;;;;6.10;69.39;101797.84;106926;1237;96603;-68
2022/10/12 01:14:40;;;;;;;87.00;31.70;;;;;;;6.04;69.48;101795.92;106799;1244;139595;-68
2022/10/12 01:17:30;;;;;;;82.30;29.80;;;;;;;6.01;69.60;101795.23;106991;1251;97716;-68
2022/10/12 01:20:27;;;;;;;86.80;33.50;;;;;;;6.00;69.62;101792.58;106838;1236;138958;-68
2022/10/12 01:23:03;;;;;;;81.70;32.20;;;;;;;5.95;69.73;101789.59;106975;1245;98047;-68
2022/10/12 01:25:55;;;;;;;89.80;30.60;;;;;;;5.93;69.67;101786.23;106866;1251;139646;-68
2022/10/12 01:28:32;;;;;;;87.10;30.00;;;;;;;5.93;70.10;101790.49;106892;1243;100602;-69
2022/10/12 01:31:31;;;;;;;83.30;30.20;;;;;;;5.95;69.98;101791.55;106816;1259;139108;-68
2022/10/12 01:34:04;;;;;;;79.70;26.00;;;;;;;5.93;70.08;101790.48;106824;1232;97707;-67
2022/10/12 01:36:39;;;;;;;75.70;26.80;;;;;;;5.92;70.15;101795.29;106840;1248;98070;-68
2022/10/12 01:39:20;;;;;;;71.00;26.40;;;;;;;5.92;70.08;101795.28;106793;1237;138192;-68
2022/10/12 01:41:58;;;;;;;70.30;26.50;;;;;;;5.89;70.20;101798.84;106965;1250;100482;-68
2022/10/12 01:44:25;;;;;;;62.10;23.40;;;;;;;5.87;70.16;101799.18;106678;1245;140019;-68
2022/10/12 01:46:52;;;;;;;68.00;25.00;;;;;;;5.85;70.19;101799.90;106773;1246;99111;-68
2022/10/12 01:49:22;;;;;;;77.70;25.90;;;;;;;5.82;70.18;101796.73;106653;1253;139036;-68
2022/10/12 01:52:01;;;;;;;69.70;26.80;;;;;;;5.78;70.40;101797.63;107021;1252;111350;-68
2022/10/12 01:54:53;;;;;;;79.40;25.50;;;;;;;5.74;70.24;101799.08;106999;1244;98582;-68
2022/10/12 01:57:39;;;;;;;66.90;26.10;;;;;;;5.71;70.37;101798.20;106737;1247;107405;-68
2022/10/12 02:00:14;;;;;;;60.90;23.70;;;;;;;5.68;70.40;101800.17;106732;1253;97625;-68
2022/10/12 02:03:09;;;;;;;65.30;23.20;;;;;;;5.62;70.58;101803.92;106751;1252;138952;-68
2022/10/12 02:05:47;;;;;;;63.10;24.40;;;;;;;5.58;70.57;101804.13;106904;1250;111713;-68
2022/10/12 02:08:19;;;;;;;66.20;23.30;;;;;;;5.57;70.72;101801.81;106787;1250;139652;-67
2022/10/12 02:10:55;;;;;;;69.70;25.50;;;;;;;5.56;70.70;101799.16;106998;1244;107499;-68
2022/10/12 02:13:25;;;;;;;55.30;21.70;;;;;;;5.55;70.82;101796.69;106747;1245;140130;-68
2022/10/12 02:15:53;;;;;;;62.80;23.80;;;;;;;5.54;70.80;101792.61;106938;1246;97674;-68
2022/10/12 02:18:20;;;;;;;59.50;24.80;;;;;;;5.52;70.90;101796.34;106861;1253;111691;-67
2022/10/12 02:20:50;;;;;;;61.10;21.70;;;;;;;5.50;70.92;101798.12;106855;1246;138621;-68
2022/10/12 02:23:17;;;;;;;53.80;22.70;;;;;;;5.49;70.96;101800.79;106926;1245;107943;-68
2022/10/12 02:25:44;;;;;;;63.40;23.90;;;;;;;5.48;71.05;101799.20;106843;1251;139074;-68
2022/10/12 02:28:15;;;;;;;73.40;22.90;;;;;;;5.46;71.10;101798.13;106895;1259;97447;-68
2022/10/12 02:30:53;;;;;;;61.70;23.80;;;;;;;5.43;71.14;101798.33;106928;1251;110609;-68
2022/10/12 02:33:39;;;;;;;54.20;22.30;;;;;;;5.42;71.18;101796.02;106946;1238;99541;-67
2022/10/12 02:36:15;;;;;;;51.70;22.10;;;;;;;5.39;71.26;101798.87;106856;1237;108310;-68
2022/10/12 02:38:47;;;;;;;52.90;21.60;;;;;;;5.36;71.27;101799.59;106821;1251;139487;-68
2022/10/12 02:41:23;;;;;;;54.70;21.80;;;;;;;5.33;71.39;101797.83;106946;1238;98971;-68
2022/10/12 02:43:57;;;;;;;61.80;22.10;;;;;;;5.33;71.40;101799.79;106687;1246;138880;-68
2022/10/12 02:46:25;;;;;;;63.40;21.50;;;;;;;5.32;71.52;101801.03;106818;1246;99828;-68
2022/10/12 02:48:52;;;;;;;62.80;23.10;;;;;;;5.31;71.59;101800.32;106782;1253;108244;-68
2022/10/12 02:51:18;;;;;;;52.30;22.40;;;;;;;5.30;71.62;101804.22;106660;1246;138837;-68
2022/10/12 02:53:45;;;;;;;58.40;23.10;;;;;;;5.28;71.60;101802.10;106807;1251;97620;-68
2022/10/12 02:56:12;;;;;;;66.60;22.40;;;;;;;5.27;71.67;101802.28;106770;1246;140957;-68
2022/10/12 02:58:37;;;;;;;59.30;22.80;;;;;;;5.27;71.66;101803.88;106993;1251;97781;-68
2022/10/12 03:01:03;;;;;;;52.20;22.50;;;;;;;5.23;71.81;101803.35;106842;1251;139858;-67
2022/10/12 03:03:29;;;;;;;57.80;24.00;;;;;;;5.21;71.56;101803.91;106957;1238;97648;-68
2022/10/12 03:05:55;;;;;;;62.70;23.90;;;;;;;5.20;71.89;101802.88;107013;1251;99009;-68
2022/10/12 03:08:20;;;;;;;57.50;23.70;;;;;;;5.19;71.97;101804.10;106720;1253;139516;-67
2022/10/12 03:10:45;;;;;;;55.20;21.00;;;;;;;5.17;71.87;101805.89;106775;1253;97690;-68
2022/10/12 03:13:10;;;;;;;61.60;21.10;;;;;;;5.18;72.06;101804.47;106800;1245;140653;-68
2022/10/12 03:15:36;;;;;;;59.50;20.10;;;;;;;5.19;72.15;101805.17;106944;1238;97596;-69
2022/10/12 03:18:01;;;;;;;57.70;22.80;;;;;;;5.21;72.09;101809.20;106936;1247;97681;-69
2022/10/12 03:20:26;;;;;;;48.50;20.40;;;;;;;5.20;72.16;101806.73;106764;1237;139574;-69
2022/10/12 03:22:51;;;;;;;46.80;21.10;;;;;;;5.21;72.10;101809.57;107029;1234;97824;-69
2022/10/12 03:25:16;;;;;;;49.70;21.00;;;;;;;5.19;72.12;101810.31;106814;1244;139137;-69
2022/10/12 03:27:42;;;;;;;55.20;21.70;;;;;;;5.17;72.30;101810.32;106785;1239;97741;-69
2022/10/12 03:30:10;;;;;;;62.10;21.80;;;;;;;5.16;72.46;101809.61;106899;1252;97737;-69
2022/10/12 03:32:35;;;;;;;54.00;21.70;;;;;;;5.15;72.32;101810.51;106888;1245;139306;-69
2022/10/12 03:35:00;;;;;;;51.90;21.10;;;;;;;5.12;72.27;101810.33;106921;1238;99371;-69
2022/10/12 03:37:26;;;;;;;56.90;21.80;;;;;;;5.11;72.37;101813.16;106886;1237;139447;-68
2022/10/12 03:39:51;;;;;;;51.90;21.70;;;;;;;5.09;72.35;101815.47;106925;1238;97358;-69
2022/10/12 03:42:16;;;;;;;54.70;22.60;;;;;;;5.05;72.39;101819.20;107024;1251;97733;-69
2022/10/12 03:44:41;;;;;;;58.50;22.80;;;;;;;4.97;72.34;101820.81;106781;1253;140478;-69
2022/10/12 03:47:06;;;;;;;61.10;21.30;;;;;;;4.89;72.46;101819.76;107005;1244;97690;-69
2022/10/12 03:49:32;;;;;;;53.40;21.30;;;;;;;4.85;72.46;101822.41;106780;1238;139401;-69
2022/10/12 03:51:57;;;;;;;51.30;21.80;;;;;;;4.84;72.63;101822.77;106899;1239;98128;-69
2022/10/12 03:54:22;;;;;;;63.50;22.60;;;;;;;4.82;72.60;101820.65;106950;1244;97668;-69
2022/10/12 03:56:47;;;;;;;65.00;22.50;;;;;;;4.81;72.70;101820.83;106827;1244;139799;-69
2022/10/12 03:59:13;;;;;;;56.70;22.50;;;;;;;4.79;72.86;101816.93;106969;1257;97859;-69
2022/10/12 04:01:38;;;;;;;56.00;22.10;;;;;;;4.79;72.99;101818.01;106707;1234;138959;-68
2022/10/12 04:04:03;;;;;;;63.90;23.30;;;;;;;4.80;72.94;101815.34;106783;1251;97634;-69
2022/10/12 04:06:28;;;;;;;56.60;20.20;;;;;;;4.81;72.98;101818.70;106770;1243;99598;-69
2022/10/12 04:08:54;;;;;;;47.80;20.30;;;;;;;4.82;73.23;101818.88;106810;1232;138929;-69
2022/10/12 04:11:19;;;;;;;60.00;20.80;;;;;;;4.81;73.04;101821.01;106937;1238;97593;-69
2022/10/12 04:13:44;;;;;;;57.20;21.60;;;;;;;4.82;73.08;101821.89;106789;1254;139776;-69
2022/10/12 04:16:10;;;;;;;54.60;20.10;;;;;;;4.85;73.21;101824.72;107006;1238;97636;-69
2022/10/12 04:18:35;;;;;;;61.10;24.80;;;;;;;4.84;73.11;101825.08;106910;1241;97706;-69
2022/10/12 04:21:01;;;;;;;62.90;23.80;;;;;;;4.81;73.09;101825.79;106798;1238;138995;-67
2022/10/12 04:23:27;;;;;;;57.00;21.90;;;;;;;4.79;73.05;101830.57;106997;1251;97630;-67
2022/10/12 04:25:52;;;;;;;60.90;22.50;;;;;;;4.76;73.08;101829.34;106789;1257;140160;-67
2022/10/12 04:28:17;;;;;;;53.70;20.80;;;;;;;4.72;73.09;101828.10;106937;1234;98569;-67
2022/10/12 04:30:44;;;;;;;56.60;22.70;;;;;;;4.65;73.02;101829.34;107029;1244;97703;-67
2022/10/12 04:33:10;;;;;;;70.00;24.40;;;;;;;4.58;73.06;101826.33;106667;1238;139889;-69
2022/10/12 04:35:35;;;;;;;92.90;25.00;;;;;;;4.49;73.13;101829.33;106860;1252;97697;-67
2022/10/12 04:38:00;;;;;;;70.80;24.10;;;;;;;4.41;72.93;101836.59;106725;1237;139758;-67
2022/10/12 04:40:25;;;;;;;61.90;25.10;;;;;;;4.33;73.24;101837.28;106911;1239;99096;-68
2022/10/12 04:42:51;;;;;;;68.70;24.00;;;;;;;4.27;73.28;101837.10;106972;1252;97758;-67
2022/10/12 04:45:16;;;;;;;64.10;26.40;;;;;;;4.21;73.35;101840.09;106638;1237;138976;-67
2022/10/12 04:47:41;;;;;;;77.80;27.00;;;;;;;4.13;73.08;101840.79;106865;1253;97908;-67
2022/10/12 04:50:07;;;;;;;73.40;26.90;;;;;;;4.04;73.25;101839.17;106730;1251;139409;-67
2022/10/12 04:52:32;;;;;;;63.00;26.40;;;;;;;4.00;73.46;101833.86;106811;1246;97761;-68
2022/10/12 04:54:59;;;;;;;69.00;27.10;;;;;;;3.98;73.55;101831.91;106718;1237;140372;-68
2022/10/12 04:57:24;;;;;;;74.70;29.50;;;;;;;3.96;73.41;101835.79;106919;1262;110973;-68
2022/10/12 04:59:49;;;;;;;74.70;28.40;;;;;;;3.95;73.68;101839.86;106885;1250;97759;-68
2022/10/12 05:02:15;;;;;;;72.50;27.70;;;;;;;3.91;73.45;101842.31;106773;1233;139380;-68
2022/10/12 05:04:40;;;;;;;75.30;27.10;;;;;;;3.80;73.33;101842.99;106975;1253;97793;-68
2022/10/12 05:07:05;;;;;;;85.50;27.90;;;;;;;3.69;73.30;101848.25;106846;1238;139904;-68
2022/10/12 05:09:30;;;;;;;70.60;27.50;;;;;;;3.62;73.44;101847.16;106744;1245;98983;-68
2022/10/12 05:11:55;;;;;;;88.70;29.00;;;;;;;3.60;73.82;101847.51;106810;1243;98803;-68
2022/10/12 05:14:21;;;;;;;86.20;28.30;;;;;;;3.62;73.84;101846.81;106744;1250;139046;-68
2022/10/12 05:16:46;;;;;;;77.40;25.60;;;;;;;3.66;74.04;101845.06;106943;1245;99141;-68
2022/10/12 05:19:11;;;;;;;64.30;23.60;;;;;;;3.72;74.10;101848.27;106788;1238;139885;-67
2022/10/12 05:21:38;;;;;;;62.70;22.80;;;;;;;3.80;74.31;101849.88;106741;1235;97691;-68
2022/10/12 05:24:04;;;;;;;55.50;21.50;;;;;;;3.87;74.25;101850.44;106661;1237;97726;-68
2022/10/12 05:26:29;;;;;;;61.40;22.10;;;;;;;3.94;74.22;101844.27;106874;1241;139916;-68
2022/10/12 05:28:54;;;;;;;62.70;22.40;;;;;;;4.01;74.24;101851.19;106900;1254;98973;-67
2022/10/12 05:31:19;;;;;;;57.60;21.80;;;;;;;4.08;74.48;101849.09;106784;1234;138895;-67
2022/10/12 05:33:45;;;;;;;59.20;21.60;;;;;;;4.15;74.61;101850.34;106710;1235;97729;-68
2022/10/12 05:36:10;;;;;;;62.50;22.00;;;;;;;4.22;74.67;101846.82;106744;1242;99134;-67
2022/10/12 05:38:35;;;;;;;70.10;22.10;;;;;;;4.31;74.70;101846.66;106783;1244;138947;-68
2022/10/12 05:41:00;;;;;;;55.40;22.00;;;;;;;4.37;74.75;101849.85;106821;1237;97905;-67
2022/10/12 05:43:25;;;;;;;63.80;21.90;;;;;;;4.43;74.64;101851.10;106760;1244;139374;-67
2022/10/12 05:45:50;;;;;;;64.80;23.70;;;;;;;4.47;74.42;101856.23;106700;1240;97519;-68
2022/10/12 05:48:16;;;;;;;85.10;25.90;;;;;;;4.45;74.53;101854.83;106812;1240;97809;-67
2022/10/12 05:50:41;;;;;;;73.80;26.20;;;;;;;4.44;74.49;101859.60;106731;1245;140082;-67
2022/10/12 05:53:06;;;;;;;70.80;22.70;;;;;;;4.43;74.64;101858.00;106864;1245;97622;-67
2022/10/12 05:55:31;;;;;;;69.30;23.30;;;;;;;4.46;74.68;101859.23;106827;1244;138658;-67
2022/10/12 05:57:57;;;;;;;69.70;24.70;;;;;;;4.55;74.86;101851.81;106897;1245;99090;-68
2022/10/12 06:00:22;;;;;;;59.50;20.60;;;;;;;4.63;74.72;101859.61;106878;1243;97683;-67
2022/10/12 06:02:47;;;;;;;64.90;22.40;;;;;;;4.72;74.99;101864.21;106679;1252;138844;-67
2022/10/12 06:05:12;;;;;;;60.00;21.70;;;;;;;4.80;74.99;101864.21;106777;1237;99053;-67
2022/10/12 06:07:37;;;;;;;65.00;22.40;;;;;;;4.89;75.08;101865.64;106696;1250;139509;-69
2022/10/12 06:10:03;;;;;;;67.70;23.00;;;;;;;4.96;75.08;101863.32;106834;1237;97760;-68
2022/10/12 06:12:29;;;;;;;63.30;23.80;;;;;;;5.02;75.07;101864.02;108922;1244;95943;-68
2022/10/12 06:14:54;;;;;;;64.00;21.80;;;;;;;5.06;75.16;101865.44;108651;1247;140163;-68
2022/10/12 06:17:19;;;;;;;58.40;21.90;;;;;;;5.12;75.24;101869.16;108803;1247;95684;-68
2022/10/12 06:19:44;;;;;;;62.60;20.10;;;;;;;5.19;75.46;101868.23;107463;1238;138847;-68
2022/10/12 06:22:09;;;;;;;57.30;20.00;;;;;;;5.29;75.29;101866.42;106822;1237;97719;-68
2022/10/12 06:24:35;;;;;;;56.30;19.00;;;;;;;5.37;75.43;101864.98;106739;1238;97601;-68
2022/10/12 06:27:00;;;;;;;68.30;21.70;;;;;;;5.46;75.29;101864.08;106653;1242;138909;-68
2022/10/12 06:29:25;;;;;;;54.70;19.80;;;;;;;5.54;75.37;101867.95;106647;1236;97664;-68
2022/10/12 06:31:51;;;;;;;49.80;20.10;;;;;;;5.63;75.39;101872.54;106719;1248;138729;-68
2022/10/12 06:34:17;;;;;;;57.00;21.40;;;;;;;5.70;75.39;101872.33;106884;1244;98722;-68
2022/10/12 06:36:42;;;;;;;66.20;20.70;;;;;;;5.78;75.45;101866.45;106911;1250;99815;-68
2022/10/12 06:39:08;;;;;;;55.90;22.00;;;;;;;5.85;75.44;101868.91;106870;1243;138965;-68
2022/10/12 06:41:34;;;;;;;62.20;21.40;;;;;;;5.92;75.47;101869.96;106806;1233;99830;-68
2022/10/12 06:43:59;;;;;;;75.10;23.00;;;;;;;6.01;75.64;101869.04;106727;1238;139105;-68
2022/10/12 06:46:24;;;;;;;72.70;24.20;;;;;;;6.08;75.62;101867.94;106972;1238;97722;-68
2022/10/12 06:48:49;;;;;;;57.20;23.50;;;;;;;6.17;75.64;101867.53;106915;1234;98532;-68
2022/10/12 06:51:15;;;;;;;51.30;20.30;;;;;;;6.26;75.61;101863.58;106694;1247;139905;-68
2022/10/12 06:53:40;;;;;;;68.10;22.10;;;;;;;6.33;75.61;101863.17;106746;1251;97679;-68
2022/10/12 06:56:09;;;;;;;61.60;22.30;;;;;;;6.41;75.67;101864.72;106755;1253;138863;-68
2022/10/12 06:58:35;;;;;;;61.20;20.90;;;;;;;6.49;75.73;101868.92;106955;1233;99946;-68
2022/10/12 07:01:02;;;;;;;59.40;20.60;;;;;;;6.56;75.66;101867.98;107054;1242;138880;-66
2022/10/12 07:03:30;;;;;;;67.60;22.00;;;;;;;6.65;75.70;101871.11;107028;1241;97841;-68
2022/10/12 07:06:04;;;;;;;52.50;19.10;;;;;;;6.74;75.69;101867.49;106990;1238;97652;-68
2022/10/12 07:08:29;;;;;;;58.00;21.10;;;;;;;6.84;75.76;101866.35;106613;1238;139811;-69
2022/10/12 07:11:05;;;;;;;57.00;20.50;;;;;;;6.93;75.75;101869.29;106650;1232;97795;-68
2022/10/12 07:13:33;;;;;;;54.10;21.00;;;;;;;7.02;75.60;101872.05;106585;1243;138754;-68
2022/10/12 07:15:59;;;;;;;69.10;24.20;;;;;;;7.10;75.72;101872.34;107615;1251;97693;-69
2022/10/12 07:18:24;;;;;;;67.30;21.40;;;;;;;7.20;75.68;101875.44;107374;1248;96460;-68
2022/10/12 07:20:50;;;;;;;59.40;22.50;;;;;;;7.28;75.70;101879.27;107340;1241;138935;-68
2022/10/12 07:23:15;;;;;;;59.80;22.40;;;;;;;7.36;75.64;101877.58;107354;1254;96474;-68
2022/10/12 07:25:47;;;;;;;54.80;19.50;;;;;;;7.44;75.72;101878.21;107255;1234;139640;-69
2022/10/12 07:28:12;;;;;;;57.90;21.90;;;;;;;7.54;75.70;101874.20;107353;1237;99024;-68
2022/10/12 07:30:37;;;;;;;65.50;20.50;;;;;;;7.62;75.67;101882.10;107409;1238;97631;-68
2022/10/12 07:33:02;;;;;;;65.80;20.10;;;;;;;7.71;75.67;101882.70;107239;1254;140619;-68
2022/10/12 07:35:27;;;;;;;51.60;20.50;;;;;;;7.80;75.71;101885.77;107280;1243;97627;-69
2022/10/12 07:37:53;;;;;;;67.90;24.40;;;;;;;7.89;75.63;101889.04;107274;1238;141255;-68
2022/10/12 07:40:18;;;;;;;68.20;24.10;;;;;;;7.97;75.54;101891.25;107385;1243;97710;-68
2022/10/12 07:42:43;;;;;;;66.80;25.30;;;;;;;8.02;75.51;101886.73;107474;1254;97604;-68
2022/10/12 07:45:09;;;;;;;61.90;24.70;;;;;;;8.07;75.54;101888.27;107104;1254;139871;-68
2022/10/12 07:47:34;;;;;;;61.00;26.70;;;;;;;8.12;75.47;101885.89;107236;1251;97555;-68
2022/10/12 07:49:59;;;;;;;67.00;26.20;;;;;;;8.20;75.52;101884.73;107168;1239;138909;-68
2022/10/12 07:52:26;;;;;;;74.00;27.90;;;;;;;8.26;75.44;101885.88;107234;1251;97640;-69
2022/10/12 07:54:51;;;;;;;71.20;27.70;;;;;;;8.33;75.48;101884.20;107266;1250;97955;-69
2022/10/12 07:57:16;;;;;;;70.00;28.90;;;;;;;8.41;75.42;101883.20;107147;1249;139919;-68
2022/10/12 07:59:42;;;;;;;72.00;26.80;;;;;;;8.49;75.42;101877.04;107221;1243;97692;-67
2022/10/12 08:02:09;;;;;;;92.40;29.30;;;;;;;8.56;75.37;101878.35;106663;1236;139008;-68
2022/10/12 08:04:34;;;;;;;73.50;26.60;;;;;;;8.62;75.32;101877.89;106670;1243;111539;-67
2022/10/12 08:06:59;;;;;;;71.70;27.60;;;;;;;8.71;75.32;101877.05;106573;1243;140075;-67
2022/10/12 08:09:25;;;;;;;68.90;28.70;;;;;;;8.80;75.35;101881.70;106948;1257;98804;-67
2022/10/12 08:11:50;;;;;;;69.30;26.20;;;;;;;8.91;75.31;101879.39;106944;1238;99072;-67
2022/10/12 08:14:15;;;;;;;60.90;24.50;;;;;;;9.01;75.15;101878.85;106684;1243;138863;-67
2022/10/12 08:16:44;;;;;;;61.60;20.10;;;;;;;9.13;75.14;101878.48;106719;1243;98962;-68
2022/10/12 08:19:10;;;;;;;68.70;20.10;;;;;;;9.24;75.07;101877.73;106629;1243;139248;-68
2022/10/12 08:21:35;;;;;;;61.40;19.60;;;;;;;9.37;75.07;101872.33;106997;1243;97657;-68
2022/10/12 08:24:01;;;;;;;64.90;20.10;;;;;;;9.50;75.04;101870.83;106925;1251;97704;-67
2022/10/12 08:26:28;;;;;;;61.30;17.80;;;;;;;9.63;74.97;101867.01;106592;1235;141582;-67
2022/10/12 08:28:53;;;;;;;48.60;16.90;;;;;;;9.73;74.70;101869.66;106705;1235;97713;-67
2022/10/12 08:31:18;;;;;;;50.70;16.30;;;;;;;9.84;74.66;101870.50;106700;1237;140060;-67
2022/10/12 08:33:43;;;;;;;60.60;16.60;;;;;;;9.93;74.62;101865.84;106842;1238;97628;-68
2022/10/12 08:36:10;;;;;;;32.70;10.70;;;;;;;10.02;74.56;101868.16;106991;1241;98902;-68
2022/10/12 08:38:37;;;;;;;32.20;9.40;;;;;;;10.12;74.34;101869.91;106857;1243;139929;-68
2022/10/12 08:41:30;;;;;;;32.70;10.00;;;;;;;10.20;74.23;101871.19;106929;1234;111118;-68
2022/10/12 08:44:09;;;;;;;31.80;8.80;;;;;;;10.27;74.00;101868.16;106804;1242;139584;-68
2022/10/12 08:46:34;;;;;;;22.00;6.60;;;;;;;10.35;73.98;101872.45;106831;1248;108267;-68
2022/10/12 08:49:05;;;;;;;41.40;10.50;;;;;;;10.41;73.81;101873.35;107059;1242;139498;-68
2022/10/12 08:51:39;;;;;;;37.10;11.00;;;;;;;10.49;73.79;101872.98;107426;1253;96615;-68
2022/10/12 08:54:12;;;;;;;29.60;10.20;;;;;;;10.55;73.41;101873.91;107331;1238;111118;-68
2022/10/12 08:56:39;;;;;;;22.90;7.70;;;;;;;10.60;73.38;101872.73;107100;1236;138940;-69
2022/10/12 08:59:11;;;;;;;31.60;7.80;;;;;;;10.65;73.26;101870.09;107172;1242;107276;-68
2022/10/12 09:01:58;;;;;;;31.20;7.80;;;;;;;10.71;73.14;101871.02;107152;1237;138950;-68
2022/10/12 09:04:53;;;;;;;19.20;6.40;;;;;;;10.79;72.94;101869.23;106912;1241;97778;-69
2022/10/12 09:07:25;;;;;;;18.10;5.60;;;;;;;10.85;72.89;101868.20;107178;1247;139088;-68
2022/10/12 09:10:28;;;;;;;20.70;5.40;;;;;;;10.91;72.63;101869.09;107330;1245;98922;-68
2022/10/12 09:13:21;;;;;;;25.00;5.10;;;;;;;10.99;72.21;101869.79;107278;1238;139688;-69
2022/10/12 09:15:52;;;;;;;27.10;5.30;;;;;;;11.06;72.35;101869.26;107283;1243;98016;-69
2022/10/12 09:18:23;;;;;;;17.50;4.70;;;;;;;11.14;72.18;101868.69;107321;1241;99302;-69
2022/10/12 09:20:50;;;;;;;;;;;;;;;11.23;72.04;101868.27;107173;1251;140429;-69
2022/10/12 09:23:29;;;;;;;14.00;4.00;;;;;;;11.29;71.90;101862.20;107112;1241;98204;-69
2022/10/12 09:26:08;;;;;;;18.80;4.00;;;;;;;11.36;71.62;101863.44;106803;1244;139434;-68
2022/10/12 09:28:39;;;;;;;10.80;3.00;;;;;;;11.42;71.51;101856.85;106864;1238;97622;-68
2022/10/12 09:31:28;;;;;;;11.90;3.20;;;;;;;11.48;71.30;101858.13;106853;1243;139642;-68
2022/10/12 09:33:57;;;;;;;14.10;4.60;;;;;;;11.53;71.35;101854.75;106896;1238;111053;-68
2022/10/12 09:36:25;;;;;;;8.90;3.40;;;;;;;11.59;71.11;101853.48;106949;1238;99886;-68
2022/10/12 09:38:51;;;;;;;14.90;3.60;;;;;;;11.64;70.94;101856.92;106693;1243;138431;-68
2022/10/12 09:41:33;;;;;;;16.20;4.80;;;;;;;11.71;70.84;101858.18;106857;1238;97809;-68
2022/10/12 09:44:01;;;;;;;18.00;4.10;;;;;;;11.76;70.60;101857.49;106725;1237;138473;-68
2022/10/12 09:46:39;;;;;;;9.50;3.30;;;;;;;11.82;70.31;101857.89;106948;1237;111589;-68
2022/10/12 09:49:05;;;;;;;17.60;3.40;;;;;;;11.88;70.05;101858.77;106799;1238;138955;-68
2022/10/12 09:51:31;;;;;;;15.20;3.70;;;;;;;11.97;70.05;101858.86;106938;1235;100113;-69
2022/10/12 09:54:02;;;;;;;19.90;4.00;;;;;;;12.06;69.90;101859.34;107070;1237;97696;-69
2022/10/12 09:56:36;;;;;;;14.30;4.40;;;;;;;12.11;69.72;101858.10;107135;1238;137633;-69
2022/10/12 09:59:05;;;;;;;18.70;5.00;;;;;;;12.19;69.63;101860.38;107316;1238;110928;-69
2022/10/12 10:01:34;;;;;;;17.30;3.90;;;;;;;12.23;69.26;101854.49;107310;1243;138681;-69
2022/10/12 10:04:23;;;;;;;20.70;5.10;;;;;;;12.27;69.24;101857.27;107144;1254;107573;-69
2022/10/12 10:06:49;;;;;;;14.10;4.70;;;;;;;12.31;68.96;101853.52;107216;1235;98959;-69
2022/10/12 10:09:30;;;;;;;18.30;4.40;;;;;;;12.37;68.95;101854.05;107230;1238;137653;-69
2022/10/12 10:11:56;;;;;;;16.10;3.80;;;;;;;12.48;68.76;101851.75;107375;1238;110672;-69
2022/10/12 10:14:22;;;;;;;18.80;3.60;;;;;;;12.56;68.63;101845.92;107244;1236;138027;-69
2022/10/12 10:16:50;;;;;;;18.40;4.50;;;;;;;12.63;68.28;101844.08;107325;1234;97625;-69
2022/10/12 10:19:25;;;;;;;16.70;3.90;;;;;;;12.73;68.31;101841.24;107208;1239;138542;-69
2022/10/12 10:21:53;;;;;;;17.80;4.60;;;;;;;12.84;68.18;101839.26;107345;1238;97766;-69
2022/10/12 10:24:31;;;;;;;17.00;3.70;;;;;;;12.94;68.09;101836.39;107328;1244;97610;-69
2022/10/12 10:26:57;;;;;;;9.90;3.50;;;;;;;13.00;67.68;101838.16;107223;1244;138800;-69
2022/10/12 10:29:39;;;;;;;23.20;3.80;;;;;;;13.08;67.60;101835.33;107342;1239;97705;-69
2022/10/12 10:32:25;;;;;;;9.00;3.40;;;;;;;13.19;67.27;101835.54;107220;1238;137638;-69
2022/10/12 10:35:25;;;;;;;14.20;4.50;;;;;;;13.27;67.15;101834.34;107391;1241;97697;-69
2022/10/12 10:37:55;;;;;;;15.80;4.10;;;;;;;13.32;66.91;101834.33;107169;1237;137936;-70
2022/10/12 10:40:27;;;;;;;21.40;4.40;;;;;;;13.36;66.71;101831.35;107184;1240;99369;-70
2022/10/12 10:43:02;;;;;;;29.80;5.60;;;;;;;13.41;66.60;101827.58;106722;1237;107452;-69
2022/10/12 10:45:32;;;;;;;19.60;4.00;;;;;;;13.48;66.18;101824.27;106944;1231;99186;-69
2022/10/12 10:48:00;;;;;;;14.20;3.00;;;;;;;13.56;66.20;101822.88;106914;1234;97779;-69
2022/10/12 10:50:40;;;;;;;19.30;3.40;;;;;;;13.59;65.83;101822.59;107031;1237;138344;-70
2022/10/12 10:53:17;;;;;;;14.30;4.10;;;;;;;13.70;65.64;101820.01;107370;1238;99547;-70
2022/10/12 10:56:04;;;;;;;11.40;3.00;;;;;;;13.80;65.50;101818.21;107265;1237;139476;-70
2022/10/12 10:58:44;;;;;;;10.90;2.70;;;;;;;13.91;65.19;101820.48;107338;1238;97722;-69
2022/10/12 11:01:22;;;;;;;15.40;2.80;;;;;;;13.97;64.96;101814.67;107166;1238;139563;-71
2022/10/12 11:04:01;;;;;;;17.90;3.70;;;;;;;14.06;64.75;101815.40;107183;1245;111100;-69
2022/10/12 11:06:39;;;;;;;11.30;2.50;;;;;;;14.15;64.58;101808.39;106675;1232;99985;-71
2022/10/12 11:09:28;;;;;;;12.10;2.40;;;;;;;14.27;64.42;101812.23;107283;1244;137998;-69
2022/10/12 11:12:06;;;;;;;7.20;2.10;;;;;;;14.39;64.15;101809.59;107413;1234;98331;-69
2022/10/12 11:14:54;;;;;;;16.60;3.00;;;;;;;14.55;63.98;101806.95;107146;1236;137639;-69